CDT,Max TemperatureF,Mean TemperatureF,Min TemperatureF,Max Dew PointF,MeanDew PointF,Min DewpointF,Max Humidity, Mean Humidity, Min Humidity, Max Sea Level PressureIn, Mean Sea Level PressureIn, Min Sea Level PressureIn, Max VisibilityMiles, Mean VisibilityMiles, Min VisibilityMiles, Max Wind SpeedMPH, Mean Wind SpeedMPH, Max Gust SpeedMPH,PrecipitationIn, CloudCover, Events, WindDirDegrees
2013-9-1,87,74,62,72,64,57,94,77,49,29.90,29.83,29.77,10,7,0,15,5,17,0.00,1,,301
2013-9-2,73,63,51,61,55,48,94,74,50,30.05,29.99,29.90,10,10,6,13,7,16,0.00,0,,343
2013-9-3,75,62,48,57,52,45,94,74,47,30.14,30.09,30.05,10,10,10,6,1,,0.00,0,,359
2013-9-4,84,66,48,66,56,46,94,70,40,30.18,30.14,30.08,10,10,0,8,2,,0.00,0,,286
2013-9-5,82,71,60,68,62,54,94,74,58,30.25,30.20,30.14,10,10,10,13,5,,0.00,0,,94
2013-9-6,87,71,55,61,57,50,88,62,37,30.23,30.14,30.02,10,10,2,13,8,20,0.00,0,,155
2013-9-7,91,76,62,70,64,59,88,68,43,30.03,29.97,29.90,10,10,9,15,7,17,0.00,0,,191
2013-9-8,82,76,69,70,67,64,88,77,65,30.04,29.97,29.92,10,10,7,20,11,25,0.00,3,,87
2013-9-9,98,83,68,72,67,63,94,67,37,29.95,29.88,29.83,10,8,1,15,8,21,0.00,0,,181
2013-9-10,96,81,66,64,61,57,83,52,27,30.03,29.98,29.91,10,10,10,21,9,26,0.00,0,,230
2013-9-11,84,75,64,70,64,61,94,70,51,30.10,30.06,30.02,10,10,10,16,7,21,0.00,1,Thunderstorm,277
2013-9-12,77,65,53,61,52,46,94,66,36,30.16,30.09,30.04,10,10,10,20,9,25,0.00,0,,325
2013-9-13,68,56,44,46,41,36,87,61,30,30.26,30.20,30.15,10,10,10,14,8,16,0.00,0,,36
2013-9-14,73,55,37,46,41,34,87,59,31,30.22,30.13,30.02,10,10,2,12,6,16,0.00,0,,164
2013-9-15,60,55,50,57,52,43,94,83,52,30.23,30.06,30.00,10,9,2,14,8,18,1.18,6,,65
2013-9-16,66,57,48,52,47,43,94,74,43,30.41,30.33,30.23,10,10,5,15,9,20,0.00,2,,58
2013-9-17,69,56,44,55,50,43,93,75,56,30.35,30.24,30.09,10,10,4,14,7,20,0.00,2,,120
2013-9-18,69,64,60,61,56,54,82,75,68,30.10,30.06,30.02,10,10,6,17,7,22,0.09,4,Thunderstorm,160
2013-9-19,91,78,66,68,65,63,94,62,38,29.90,29.84,29.75,10,10,8,25,15,43,0.24,2,Thunderstorm,218
2013-9-20,69,61,51,63,55,48,94,75,49,29.93,29.89,29.83,10,10,9,17,10,24,0.03,4,,281
2013-9-21,66,56,46,48,46,43,93,73,46,29.99,29.95,29.91,10,10,10,13,7,21,0.00,0,,325
2013-9-22,69,55,41,48,44,37,93,70,40,30.09,30.03,29.99,10,10,7,10,4,,0.00,0,,97
2013-9-23,73,60,46,50,46,43,87,65,38,30.11,30.05,30.00,10,10,10,15,9,20,0.00,0,,118
2013-9-24,73,60,46,52,48,43,87,70,41,30.03,29.98,29.92,10,10,10,15,9,20,0.00,0,,99
2013-9-25,75,62,48,54,49,46,93,70,38,30.00,29.96,29.93,10,9,3,12,7,,0.00,0,,69
2013-9-26,80,64,48,57,51,46,94,67,42,30.07,30.03,29.98,10,8,2,14,9,20,0.00,0,,108
2013-9-27,82,66,51,55,49,46,82,56,30,30.14,30.08,30.03,10,10,10,17,10,22,0.00,0,,135
2013-9-28,80,66,51,64,55,48,94,73,47,30.04,29.98,29.90,10,10,2,25,11,34,0.07,4,,185
2013-9-29,71,56,42,52,43,37,94,68,33,30.12,30.06,30.01,10,7,0,9,3,,0.06,1,,184
2013-9-30,75,58,41,50,45,37,87,62,34,30.02,29.94,29.86,10,10,6,16,7,21,0.00,0,,157